Time;durP1;ratioP1;P1;durP2;ratioP2;P2;SDS_P1;SDS_P2;PMS_P1;PMS_P2;Temp;Humidity;BMP_temperature;BMP_pressure;BME280_temperature;BME280_humidity;BME280_pressure;Samples;Min_cycle;Max_cycle;Signal;HPM_P1;HPM_P2
2022/05/20 00:01:44;;;;;;;11.10;4.40;;;;;;;17.01;44.92;99798.73;104643;1273;62173;-67
2022/05/20 00:04:32;;;;;;;10.70;4.20;;;;;;;17.00;45.02;99794.51;104747;1274;74312;-65
2022/05/20 00:07:20;;;;;;;10.10;4.60;;;;;;;17.01;44.97;99787.81;104767;1273;67260;-65
2022/05/20 00:10:17;;;;;;;11.90;4.50;;;;;;;17.02;44.98;99777.49;104999;1273;72216;-67
2022/05/20 00:13:06;;;;;;;9.80;4.40;;;;;;;17.04;44.87;99776.92;104652;1273;59893;-66
2022/05/20 00:15:55;;;;;;;11.10;4.10;;;;;;;17.06;44.84;99772.48;104780;1273;60001;-66
2022/05/20 00:18:43;;;;;;;10.30;4.30;;;;;;;17.08;44.81;99773.70;104712;1273;73615;-64
2022/05/20 00:21:33;;;;;;;10.00;4.50;;;;;;;17.08;44.85;99770.29;104706;1274;69662;-63
2022/05/20 00:24:21;;;;;;;11.20;3.80;;;;;;;17.09;44.93;99771.78;106159;1274;74507;-66
2022/05/20 00:27:09;;;;;;;10.20;4.20;;;;;;;17.08;45.05;99766.64;105489;1273;59713;-64
2022/05/20 00:29:58;;;;;;;10.20;4.30;;;;;;;17.09;45.05;99768.73;105128;1273;60469;-64
2022/05/20 00:32:46;;;;;;;9.80;4.30;;;;;;;17.10;45.03;99765.77;104780;1277;72598;-64
2022/05/20 00:35:35;;;;;;;12.00;4.10;;;;;;;17.10;45.08;99766.05;104886;1273;69763;-67
2022/05/20 00:38:24;;;;;;;11.00;4.50;;;;;;;17.12;45.00;99767.79;104937;1273;73294;-65
2022/05/20 00:41:13;;;;;;;11.50;4.40;;;;;;;17.13;44.99;99762.27;104865;1273;59642;-66
2022/05/20 00:44:00;;;;;;;9.90;3.90;;;;;;;17.15;44.98;99754.77;104701;1274;62028;-66
2022/05/20 00:46:49;;;;;;;9.00;4.10;;;;;;;17.16;45.10;99752.29;104806;1273;74794;-67
2022/05/20 00:49:39;;;;;;;10.80;4.00;;;;;;;17.17;44.98;99753.21;104714;1273;68449;-66
2022/05/20 00:52:32;;;;;;;8.80;4.00;;;;;;;17.18;44.87;99749.16;104763;1274;74089;-66
2022/05/20 00:55:23;;;;;;;10.50;4.10;;;;;;;17.21;44.85;99749.27;104618;1274;59769;-65
2022/05/20 00:58:18;;;;;;;8.10;3.50;;;;;;;17.23;44.89;99750.41;104520;1274;60736;-66
2022/05/20 01:01:07;;;;;;;9.10;4.00;;;;;;;17.24;44.98;99750.52;104632;1273;73170;-66
2022/05/20 01:03:56;;;;;;;11.70;4.60;;;;;;;17.27;44.83;99750.42;104602;1275;68657;-66
2022/05/20 01:06:45;;;;;;;9.50;4.20;;;;;;;17.27;44.88;99750.94;104757;1274;72309;-68
2022/05/20 01:09:36;;;;;;;10.40;3.60;;;;;;;17.28;44.86;99747.39;104796;1273;59710;-67
2022/05/20 01:12:27;;;;;;;9.60;4.10;;;;;;;17.29;44.95;99746.96;104752;1273;60529;-64
2022/05/20 01:15:15;;;;;;;10.30;3.90;;;;;;;17.29;44.94;99743.52;105061;1273;71411;-64
2022/05/20 01:18:03;;;;;;;9.80;3.80;;;;;;;17.29;44.96;99741.21;104749;1274;68033;-63
2022/05/20 01:20:55;;;;;;;8.60;3.80;;;;;;;17.30;44.98;99737.23;104678;1273;72411;-64
2022/05/20 01:23:43;;;;;;;13.80;4.00;;;;;;;17.29;45.06;99737.28;104571;1273;59797;-63
2022/05/20 01:26:31;;;;;;;12.50;4.30;;;;;;;17.29;45.16;99733.83;104779;1273;59683;-64
2022/05/20 01:29:20;;;;;;;10.00;3.70;;;;;;;17.29;45.14;99736.94;104688;1273;73498;-66
2022/05/20 01:32:08;;;;;;;12.20;4.40;;;;;;;17.28;45.31;99739.67;104515;1274;68042;-65
2022/05/20 01:34:56;;;;;;;10.20;3.90;;;;;;;17.28;45.27;99737.41;104963;1273;70855;-66
2022/05/20 01:37:45;;;;;;;8.40;4.20;;;;;;;17.28;45.50;99731.44;105039;1273;59730;-66
2022/05/20 01:40:55;;;;;;;10.10;4.00;;;;;;;17.32;45.32;99721.38;104811;1273;61123;-68
2022/05/20 01:44:04;;;;;;;10.00;4.00;;;;;;;17.35;45.39;99723.52;104797;1274;74776;-64
2022/05/20 01:47:20;;;;;;;13.50;4.10;;;;;;;17.35;45.37;99714.90;104730;1274;67314;-65
2022/05/20 01:50:19;;;;;;;8.50;3.70;;;;;;;17.42;45.33;99721.45;105046;1274;72905;-66
2022/05/20 01:53:39;;;;;;;8.30;3.80;;;;;;;17.46;45.26;99725.20;104987;1274;59810;-61
2022/05/20 01:56:34;;;;;;;10.60;4.10;;;;;;;17.48;45.32;99725.51;105112;1273;60863;-64
2022/05/20 01:59:37;;;;;;;7.50;3.80;;;;;;;17.49;45.41;99719.48;104943;1273;73730;-61
2022/05/20 02:02:35;;;;;;;11.50;3.70;;;;;;;17.50;45.41;99722.77;104959;1274;68904;-62
2022/05/20 02:05:47;;;;;;;11.10;4.10;;;;;;;17.50;45.56;99729.56;104944;1273;73976;-64
2022/05/20 02:08:52;;;;;;;9.20;3.90;;;;;;;17.50;45.61;99730.10;104883;1274;59800;-64
2022/05/20 02:11:51;;;;;;;11.30;4.00;;;;;;;17.50;45.81;99727.19;105045;1274;62008;-64
2022/05/20 02:15:06;;;;;;;12.30;4.00;;;;;;;17.50;45.80;99720.19;104917;1274;73211;-66
2022/05/20 02:18:02;;;;;;;8.20;4.00;;;;;;;17.51;45.98;99711.73;104773;1274;68545;-65
2022/05/20 02:20:56;;;;;;;7.80;4.00;;;;;;;17.51;46.08;99711.51;104821;1274;71566;-66
2022/05/20 02:23:52;;;;;;;9.60;4.10;;;;;;;17.51;46.16;99703.27;104705;1274;59741;-65
2022/05/20 02:26:49;;;;;;;9.70;3.70;;;;;;;17.51;46.32;99706.36;104761;1275;59624;-64
2022/05/20 02:30:13;;;;;;;10.60;4.30;;;;;;;17.50;46.35;99695.26;104723;1275;74721;-67
2022/05/20 02:33:10;;;;;;;10.40;4.20;;;;;;;17.49;46.60;99704.89;104672;1274;68608;-68
2022/05/20 02:36:15;;;;;;;10.60;4.20;;;;;;;17.49;46.66;99697.96;104752;1274;74647;-68
2022/05/20 02:39:14;;;;;;;8.30;4.20;;;;;;;17.48;46.75;99702.20;104953;1275;60010;-67
2022/05/20 02:42:04;;;;;;;11.20;3.90;;;;;;;17.47;46.90;99690.84;104944;1273;60965;-64
2022/05/20 02:44:51;;;;;;;9.10;4.30;;;;;;;17.46;46.93;99693.90;104517;1278;72943;-67
2022/05/20 02:47:40;;;;;;;12.80;4.40;;;;;;;17.48;47.12;99680.86;104744;1274;67968;-68
2022/05/20 02:50:28;;;;;;;10.30;4.40;;;;;;;17.49;47.14;99684.11;104845;1274;74245;-68
2022/05/20 02:53:17;;;;;;;9.00;4.00;;;;;;;17.51;47.41;99684.94;104682;1273;59665;-65
2022/05/20 02:56:04;;;;;;;11.80;4.30;;;;;;;17.53;47.46;99688.45;104765;1273;60039;-65
2022/05/20 03:05:10;;;;;;;9.80;4.20;;;;;;;17.59;47.92;99696.95;104593;1274;72477;-66
2022/05/20 03:07:58;;;;;;;9.60;4.20;;;;;;;17.62;48.05;99691.45;104733;1274;59734;-67
2022/05/20 03:10:46;;;;;;;10.60;4.10;;;;;;;17.64;48.19;99692.83;104783;1273;60542;-66
2022/05/20 03:13:34;;;;;;;11.00;4.30;;;;;;;17.66;48.40;99688.30;104710;1273;74878;-70
2022/05/20 03:16:22;;;;;;;9.90;4.40;;;;;;;17.68;48.60;99696.00;104874;1275;66925;-69
2022/05/20 03:19:11;;;;;;;11.70;4.40;;;;;;;17.68;48.66;99700.21;104758;1273;74416;-67
2022/05/20 03:22:02;;;;;;;9.10;4.00;;;;;;;17.69;48.89;99698.13;104897;1274;59687;-69
2022/05/20 03:24:50;;;;;;;9.40;4.20;;;;;;;17.71;49.27;99700.13;104729;1275;61240;-69
2022/05/20 03:27:39;;;;;;;8.80;4.50;;;;;;;17.70;49.69;99700.70;105003;1274;71208;-68
2022/05/20 03:30:27;;;;;;;9.40;4.70;;;;;;;17.73;49.59;99710.55;104896;1274;69414;-67
2022/05/20 03:33:14;;;;;;;9.00;4.40;;;;;;;17.74;49.83;99719.07;104803;1274;72045;-65
2022/05/20 03:36:04;;;;;;;9.50;4.10;;;;;;;17.74;50.45;99720.77;104867;1274;59739;-68
2022/05/20 03:38:51;;;;;;;9.80;4.30;;;;;;;17.75;51.13;99717.41;104921;1274;60259;-67
2022/05/20 03:41:40;;;;;;;9.70;4.70;;;;;;;17.78;51.56;99719.05;104736;1274;72806;-68
2022/05/20 03:44:28;;;;;;;9.30;4.50;;;;;;;17.81;52.21;99719.40;104765;1274;69701;-65
2022/05/20 03:47:16;;;;;;;8.20;4.30;;;;;;;17.84;52.48;99712.09;104807;1271;73155;-67
2022/05/20 03:50:05;;;;;;;12.60;4.50;;;;;;;17.86;52.49;99708.81;104757;1274;59644;-65
2022/05/20 03:52:54;;;;;;;12.00;4.40;;;;;;;17.87;53.07;99702.92;105042;1274;59613;-64
2022/05/20 03:55:42;;;;;;;7.80;4.20;;;;;;;17.89;53.38;99698.98;104768;1274;74807;-65
2022/05/20 03:58:29;;;;;;;10.50;4.60;;;;;;;17.91;53.68;99701.86;104725;1274;70068;-65
2022/05/20 04:04:30;;;;;;;10.20;4.40;;;;;;;17.90;54.48;99699.27;104502;1274;59743;-66
2022/05/20 04:07:23;;;;;;;8.10;4.10;;;;;;;17.89;55.67;99701.85;104873;1274;62001;-64
2022/05/20 04:10:11;;;;;;;11.00;3.80;;;;;;;17.90;56.39;99702.13;104447;1274;73830;-65
2022/05/20 04:12:59;;;;;;;9.90;4.00;;;;;;;17.90;57.14;99704.98;104611;1274;69794;-63
2022/05/20 04:15:48;;;;;;;9.40;3.90;;;;;;;17.90;58.60;99698.90;104620;1274;74478;-66
2022/05/20 04:18:37;;;;;;;9.50;4.20;;;;;;;17.92;58.83;99698.52;104874;1274;59913;-64
2022/05/20 04:21:25;;;;;;;10.60;4.00;;;;;;;17.94;59.26;99701.16;104606;1274;61559;-65
2022/05/20 04:24:13;;;;;;;9.10;3.90;;;;;;;17.98;60.24;99697.83;104615;1274;73562;-63
2022/05/20 04:27:01;;;;;;;9.00;3.90;;;;;;;18.05;60.75;99695.21;104720;1274;68584;-61
2022/05/20 04:29:50;;;;;;;9.40;4.70;;;;;;;18.16;60.60;99693.07;104988;1273;74113;-65
2022/05/20 04:32:37;;;;;;;11.50;4.10;;;;;;;18.28;60.61;99695.08;104898;1273;59832;-65
2022/05/20 04:35:25;;;;;;;9.50;4.20;;;;;;;18.36;60.58;99693.16;104791;1274;59567;-67
2022/05/20 04:38:13;;;;;;;9.70;4.50;;;;;;;18.42;60.58;99691.48;104969;1273;74310;-65
2022/05/20 04:47:23;;;;;;;9.50;4.50;;;;;;;18.47;60.76;99693.60;104944;1273;59631;-65
2022/05/20 04:50:12;;;;;;;11.90;4.30;;;;;;;18.48;61.06;99692.25;104686;1272;59614;-65
2022/05/20 04:53:00;;;;;;;12.40;5.00;;;;;;;18.51;61.00;99693.27;104571;1274;74744;-67
2022/05/20 04:55:48;;;;;;;11.40;4.90;;;;;;;18.56;60.90;99691.23;105106;1274;67642;-67
2022/05/20 04:58:36;;;;;;;10.10;4.90;;;;;;;18.66;60.83;99696.46;104658;1273;74193;-66
2022/05/20 05:01:24;;;;;;;11.00;4.80;;;;;;;18.87;60.45;99699.55;104703;1273;59833;-68
2022/05/20 05:04:12;;;;;;;9.00;4.40;;;;;;;19.02;60.09;99695.21;104687;1273;60305;-66
2022/05/20 05:07:00;;;;;;;10.20;4.40;;;;;;;19.37;59.47;99687.09;104739;1273;74548;-67
2022/05/20 05:09:48;;;;;;;8.90;4.10;;;;;;;19.84;58.52;99685.61;104747;1273;69696;-65
2022/05/20 05:12:36;;;;;;;12.50;4.90;;;;;;;20.33;57.82;99688.38;104782;1275;73444;-66
2022/05/20 05:15:25;;;;;;;9.70;4.40;;;;;;;21.35;55.42;99688.27;104629;1273;59656;-68
2022/05/20 05:18:12;;;;;;;12.30;4.00;;;;;;;22.54;52.52;99690.66;104760;1273;59662;-68
2022/05/20 05:21:01;;;;;;;7.30;3.50;;;;;;;23.81;49.31;99681.41;104625;1274;73606;-68
2022/05/20 05:23:53;;;;;;;8.60;3.30;;;;;;;25.00;46.10;99684.33;104886;1273;69649;-69
2022/05/20 05:26:42;;;;;;;8.80;3.40;;;;;;;26.04;44.04;99682.79;104941;1273;73951;-74
2022/05/20 05:29:30;;;;;;;7.70;3.00;;;;;;;26.71;42.33;99676.70;105000;1273;59646;-73
2022/05/20 05:32:18;;;;;;;8.40;3.30;;;;;;;27.41;40.85;99681.67;104937;1273;59640;-72
2022/05/20 05:35:13;;;;;;;7.70;2.90;;;;;;;27.97;39.41;99677.77;104749;1273;73020;-70
2022/05/20 05:38:00;;;;;;;9.50;3.40;;;;;;;28.31;38.64;99676.00;104916;1274;68522;-72
2022/05/20 05:40:49;;;;;;;8.50;2.70;;;;;;;28.46;38.17;99680.06;104727;1273;73980;-71
2022/05/20 05:43:38;;;;;;;9.40;2.90;;;;;;;28.51;38.23;99682.77;104626;1273;59740;-73
2022/05/20 05:46:27;;;;;;;8.20;2.90;;;;;;;29.03;37.13;99685.00;104755;1273;60605;-73
2022/05/20 05:49:15;;;;;;;7.60;2.50;;;;;;;29.54;36.21;99683.84;104747;1273;73978;-73
2022/05/20 05:52:04;;;;;;;7.00;2.40;;;;;;;29.86;35.66;99687.69;104757;1273;68753;-75
2022/05/20 05:54:52;;;;;;;7.50;2.10;;;;;;;30.31;34.98;99689.89;104663;1273;71821;-74
2022/05/20 05:57:40;;;;;;;8.80;2.60;;;;;;;30.58;34.26;99688.91;105023;1273;59711;-72
2022/05/20 06:00:28;;;;;;;9.60;2.50;;;;;;;30.94;33.74;99700.08;104786;1273;59657;-72
2022/05/20 06:03:16;;;;;;;7.70;2.20;;;;;;;31.30;33.24;99701.98;104922;1273;74762;-73
2022/05/20 06:06:04;;;;;;;8.70;2.50;;;;;;;31.81;32.38;99697.26;104751;1273;68635;-70
2022/05/20 06:08:52;;;;;;;7.30;2.30;;;;;;;31.72;32.24;99702.90;104731;1273;73043;-71
2022/05/20 06:11:40;;;;;;;6.70;2.20;;;;;;;31.33;32.80;99702.13;104954;1273;59737;-69
2022/05/20 06:14:29;;;;;;;10.50;2.20;;;;;;;31.33;32.73;99703.39;104793;1273;62262;-71
2022/05/20 06:17:17;;;;;;;8.70;2.40;;;;;;;31.47;32.65;99705.88;104672;1273;74195;-71
2022/05/20 06:20:06;;;;;;;9.80;2.90;;;;;;;31.79;32.45;99709.80;104790;1273;68618;-73
2022/05/20 06:22:56;;;;;;;10.00;3.60;;;;;;;31.89;32.12;99709.89;104909;1273;72920;-71
2022/05/20 06:25:44;;;;;;;11.40;4.10;;;;;;;31.88;32.19;99711.65;104801;1273;59747;-70
2022/05/20 06:28:52;;;;;;;10.60;4.90;;;;;;;31.26;33.28;99711.52;104920;1273;60355;-70
2022/05/20 06:31:42;;;;;;;10.30;5.20;;;;;;;30.79;34.43;99712.64;104754;1273;74681;-74
2022/05/20 06:39:48;;;;;;;12.50;5.10;;;;;;;30.36;35.14;99714.04;105487;1273;68494;-74
2022/05/20 06:40:49;;;;;;;13.90;6.60;;;;;;;29.32;37.38;99713.20;104663;1273;59737;-75
2022/05/20 06:43:38;;;;;;;13.60;6.80;;;;;;;28.62;38.92;99725.55;104900;1274;59667;-76
2022/05/20 06:46:27;;;;;;;11.70;7.00;;;;;;;27.47;41.22;99734.41;104835;1273;74689;-71
2022/05/20 06:49:18;;;;;;;12.10;6.30;;;;;;;26.64;43.20;99737.52;106948;1273;69366;-70
2022/05/20 06:52:06;;;;;;;12.30;7.30;;;;;;;26.02;44.77;99735.77;107320;1271;71388;-71
2022/05/20 06:55:15;;;;;;;14.30;8.80;;;;;;;25.73;46.23;99739.96;107540;1273;57539;-72
2022/05/20 06:58:03;;;;;;;12.10;7.40;;;;;;;26.42;44.74;99741.15;107281;1273;58995;-73
2022/05/20 07:00:52;;;;;;;13.10;7.90;;;;;;;26.43;44.90;99734.40;105347;1273;71342;-75
2022/05/20 07:03:40;;;;;;;12.90;7.50;;;;;;;26.32;45.09;99737.23;104960;1273;67794;-73
2022/05/20 07:06:30;;;;;;;12.30;7.60;;;;;;;25.98;46.18;99740.23;105099;1274;73349;-72
2022/05/20 07:09:18;;;;;;;11.90;6.80;;;;;;;26.04;46.31;99740.79;105104;1274;60175;-72
2022/05/20 07:12:08;;;;;;;12.50;8.30;;;;;;;26.40;45.44;99749.02;105014;1274;59638;-73
2022/05/20 07:14:56;;;;;;;14.80;9.20;;;;;;;25.65;47.08;99744.13;104971;1274;74152;-74
2022/05/20 07:17:47;;;;;;;15.30;8.50;;;;;;;25.14;48.25;99751.66;104869;1273;68907;-71
2022/05/20 07:20:35;;;;;;;13.20;9.10;;;;;;;24.77;49.50;99755.85;104869;1273;74707;-73
2022/05/20 07:23:26;;;;;;;13.70;9.50;;;;;;;24.53;50.48;99760.04;104857;1273;59785;-73
2022/05/20 07:26:16;;;;;;;18.10;10.50;;;;;;;24.46;50.57;99753.92;104781;1274;60292;-72
2022/05/20 07:29:06;;;;;;;15.80;9.60;;;;;;;25.16;49.13;99761.16;105016;1273;73635;-72
2022/05/20 07:31:54;;;;;;;16.60;10.30;;;;;;;25.92;46.89;99753.25;105048;1273;68603;-73
2022/05/20 07:34:45;;;;;;;16.90;9.60;;;;;;;25.52;47.35;99762.36;105050;1273;74136;-72
2022/05/20 07:37:33;;;;;;;19.00;10.10;;;;;;;24.92;48.67;99761.30;104949;1274;59689;-72
2022/05/20 07:40:22;;;;;;;14.10;8.90;;;;;;;24.50;49.96;99764.79;104969;1274;61051;-72
2022/05/20 07:43:12;;;;;;;19.20;11.40;;;;;;;24.28;50.83;99769.33;104894;1273;73784;-72
2022/05/20 07:46:01;;;;;;;19.10;11.20;;;;;;;24.12;50.87;99773.25;105222;1273;68532;-71
2022/05/20 07:48:51;;;;;;;17.20;10.90;;;;;;;23.93;51.50;99776.21;105212;1273;74022;-70
2022/05/20 07:51:45;;;;;;;16.70;10.50;;;;;;;23.85;52.11;99772.62;105048;1273;59640;-73
2022/05/20 07:54:38;;;;;;;17.80;12.60;;;;;;;23.96;51.95;99778.36;105130;1273;59660;-72
2022/05/20 07:57:26;;;;;;;18.50;12.50;;;;;;;23.93;51.54;99781.42;104952;1273;75090;-72
2022/05/20 08:00:15;;;;;;;19.00;10.40;;;;;;;23.89;51.62;99778.30;104746;1273;69704;-73
2022/05/20 08:03:04;;;;;;;18.90;11.80;;;;;;;23.74;51.86;99786.38;104815;1272;73208;-76
2022/05/20 08:05:52;;;;;;;19.60;12.40;;;;;;;23.64;52.28;99782.73;105223;1273;60243;-71
2022/05/20 08:08:41;;;;;;;20.50;12.00;;;;;;;23.72;52.53;99776.98;104779;1273;59658;-71
2022/05/20 08:11:29;;;;;;;21.50;11.90;;;;;;;24.02;51.26;99780.15;104861;1273;72022;-71
2022/05/20 08:14:17;;;;;;;19.30;11.00;;;;;;;24.44;50.37;99779.91;104784;1273;68637;-72
2022/05/20 08:17:06;;;;;;;17.00;10.60;;;;;;;24.59;49.74;99789.23;104529;1273;73372;-73
2022/05/20 08:19:56;;;;;;;19.10;10.60;;;;;;;24.80;49.27;99788.15;105172;1273;59764;-72
2022/05/20 08:22:44;;;;;;;16.00;10.20;;;;;;;25.02;48.75;99784.23;105253;1273;60651;-71
2022/05/20 08:25:35;;;;;;;17.20;10.20;;;;;;;25.87;46.91;99781.82;104967;1273;74088;-73
2022/05/20 08:28:23;;;;;;;14.70;9.00;;;;;;;26.24;45.64;99782.95;104769;1273;68399;-72
2022/05/20 08:31:11;;;;;;;16.60;9.50;;;;;;;26.96;43.97;99781.71;104721;1273;74570;-73
2022/05/20 08:34:00;;;;;;;17.10;8.60;;;;;;;27.53;41.95;99780.58;104883;1273;59941;-72
2022/05/20 08:36:48;;;;;;;16.00;8.70;;;;;;;27.86;41.51;99780.72;104986;1273;60610;-73
2022/05/20 08:39:36;;;;;;;14.80;8.40;;;;;;;28.45;39.97;99775.52;104780;1274;73836;-74
2022/05/20 08:42:29;;;;;;;14.20;8.00;;;;;;;28.87;38.55;99771.50;104787;1274;68068;-74
2022/05/20 08:45:21;;;;;;;12.00;7.60;;;;;;;28.79;38.56;99769.73;104455;1273;73937;-72
2022/05/20 08:48:11;;;;;;;14.10;8.30;;;;;;;29.27;37.48;99773.73;104778;1274;59642;-72
2022/05/20 08:51:01;;;;;;;13.30;5.90;;;;;;;29.95;36.18;99772.82;105003;1273;59756;-73
2022/05/20 08:53:50;;;;;;;12.20;6.10;;;;;;;30.32;34.95;99774.70;104673;1273;72151;-71
2022/05/20 08:56:39;;;;;;;11.40;5.70;;;;;;;30.12;35.17;99776.93;104998;1273;68113;-72
2022/05/20 08:59:31;;;;;;;10.00;5.30;;;;;;;30.23;35.06;99769.70;104942;1273;73447;-73
2022/05/20 09:02:20;;;;;;;14.30;6.50;;;;;;;30.26;34.42;99767.00;104678;1273;59698;-71
2022/05/20 09:05:25;;;;;;;11.60;6.30;;;;;;;29.98;34.64;99768.70;104640;1273;59629;-69
2022/05/20 09:08:28;;;;;;;10.60;5.90;;;;;;;29.62;34.68;99763.86;104501;1273;72211;-67
2022/05/20 09:11:17;;;;;;;11.90;5.60;;;;;;;29.46;35.06;99770.86;105967;1273;351464;-70
2022/05/20 09:17:26;;;;;;;9.90;4.40;;;;;;;29.27;35.54;99772.38;104576;1273;59681;-69
2022/05/20 09:20:18;;;;;;;8.60;4.30;;;;;;;29.69;34.60;99770.59;104937;1273;61543;-71
2022/05/20 09:23:07;;;;;;;9.80;3.80;;;;;;;29.57;34.10;99778.00;104744;1273;72805;-67
2022/05/20 09:26:08;;;;;;;11.70;4.10;;;;;;;29.62;34.08;99773.02;104817;1273;68877;-67
2022/05/20 09:29:09;;;;;;;9.30;3.10;;;;;;;29.59;33.56;99778.29;104900;1274;74306;-62
2022/05/20 09:32:25;;;;;;;9.00;3.10;;;;;;;29.41;33.20;99780.18;104924;1273;60045;-68
2022/05/20 09:35:23;;;;;;;9.00;2.70;;;;;;;29.77;32.49;99785.30;104956;1273;59775;-68
2022/05/20 09:38:29;;;;;;;7.90;2.40;;;;;;;30.28;31.75;99786.79;105041;1274;73942;-66
2022/05/20 09:41:20;;;;;;;8.20;2.50;;;;;;;30.58;30.90;99784.61;104837;1273;69549;-64
2022/05/20 09:44:11;;;;;;;8.60;2.50;;;;;;;30.58;31.16;99797.19;104723;1273;74424;-71
2022/05/20 09:47:18;;;;;;;7.50;2.70;;;;;;;30.57;30.49;99794.11;104658;1274;59743;-71
2022/05/20 09:50:34;;;;;;;10.40;2.90;;;;;;;30.26;30.90;99794.21;104912;1274;59764;-77
2022/05/20 09:53:46;;;;;;;9.10;2.80;;;;;;;30.13;31.30;99806.36;104858;1274;74261;-74
2022/05/20 09:56:40;;;;;;;8.00;2.60;;;;;;;30.40;30.88;99809.48;105043;1274;68356;-74
2022/05/20 09:59:34;;;;;;;8.60;3.00;;;;;;;30.48;30.79;99814.04;105005;1274;74766;-66
2022/05/20 10:02:54;;;;;;;7.70;2.70;;;;;;;31.02;30.19;99806.02;104726;1274;59743;-66
2022/05/20 10:06:03;;;;;;;8.60;2.70;;;;;;;31.04;29.60;99810.31;104815;1273;60214;-72
2022/05/20 10:09:16;;;;;;;7.10;2.60;;;;;;;30.46;30.33;99808.39;104771;1274;72014;-72
2022/05/20 10:12:33;;;;;;;9.90;2.90;;;;;;;29.62;31.76;99812.45;104690;1274;66853;-67
2022/05/20 10:15:31;;;;;;;6.70;2.70;;;;;;;29.89;31.71;99810.31;104833;1274;72311;-67
2022/05/20 10:18:41;;;;;;;9.20;3.10;;;;;;;30.14;31.28;99825.79;105095;1273;59746;-68
2022/05/20 10:21:56;;;;;;;9.00;3.10;;;;;;;30.20;31.16;99816.54;104637;1273;59681;-69
2022/05/20 10:25:07;;;;;;;6.90;3.20;;;;;;;29.48;32.22;99824.83;104672;1273;74836;-69
2022/05/20 10:32:34;;;;;;;7.30;3.20;;;;;;;28.15;34.37;99835.40;104723;1273;66410;-71
2022/05/20 10:34:56;;;;;;;13.70;3.40;;;;;;;26.05;38.73;99837.00;104674;1273;59701;-66
2022/05/20 10:38:03;;;;;;;9.10;4.80;;;;;;;26.87;38.45;99836.06;104760;1273;60569;-66
2022/05/20 10:41:07;;;;;;;11.90;6.00;;;;;;;27.29;38.19;99839.56;104801;1273;74610;-68
2022/05/20 10:48:37;;;;;;;12.30;6.10;;;;;;;26.61;40.06;99845.45;104614;1281;72544;-63
2022/05/20 10:52:24;;;;;;;12.40;7.40;;;;;;;26.97;39.71;99847.21;104279;1281;59810;-68
2022/05/20 10:55:27;;;;;;;12.50;7.50;;;;;;;26.97;39.43;99840.55;104470;1279;60558;-69
2022/05/20 10:58:48;;;;;;;16.20;8.00;;;;;;;26.61;40.37;99839.34;104534;1279;72286;-68
2022/05/20 11:02:04;;;;;;;13.30;7.90;;;;;;;27.11;38.86;99841.76;104253;1279;66749;-63
2022/05/20 11:05:26;;;;;;;13.20;6.70;;;;;;;27.63;37.38;99838.15;104376;1281;73460;-68
2022/05/20 11:09:38;;;;;;;11.80;6.10;;;;;;;28.51;35.79;99837.77;104240;1279;59780;-71
2022/05/20 11:13:00;;;;;;;11.80;5.20;;;;;;;27.78;36.20;99839.48;104473;1284;61145;-72
2022/05/20 11:16:24;;;;;;;13.50;6.60;;;;;;;28.34;35.11;99843.99;103883;1284;71684;-69
2022/05/20 11:19:56;;;;;;;12.20;6.70;;;;;;;27.94;35.40;99848.41;104454;1278;67357;-65
2022/05/20 11:23:11;;;;;;;13.40;6.80;;;;;;;27.48;36.08;99849.44;104461;1278;73747;-66
2022/05/20 11:26:36;;;;;;;14.10;7.60;;;;;;;27.39;36.45;99840.13;104445;1277;59769;-69
2022/05/20 11:29:36;;;;;;;12.70;7.00;;;;;;;26.58;38.16;99850.89;104514;1277;59559;-72
2022/05/20 11:32:55;;;;;;;15.00;8.90;;;;;;;26.21;39.12;99847.30;104387;1277;73873;-66
2022/05/20 11:36:24;;;;;;;16.70;7.80;;;;;;;25.68;40.29;99862.13;104314;1278;67291;-72
2022/05/20 11:40:03;;;;;;;13.50;6.70;;;;;;;25.53;41.24;99868.37;104600;1277;73480;-68
2022/05/20 11:43:26;;;;;;;14.80;9.10;;;;;;;24.56;42.82;99875.23;104871;1277;59848;-69
2022/05/20 11:46:48;;;;;;;17.30;8.90;;;;;;;23.61;44.62;99885.05;104839;1275;62042;-69
2022/05/20 11:50:07;;;;;;;18.00;9.20;;;;;;;22.92;46.76;99885.02;104685;1273;73355;-69
2022/05/20 11:53:18;;;;;;;14.80;8.40;;;;;;;22.70;47.75;99889.30;104942;1273;66353;-61
2022/05/20 11:56:35;;;;;;;15.90;8.50;;;;;;;22.70;48.05;99885.13;105023;1273;73466;-70
2022/05/20 11:59:52;;;;;;;16.80;8.80;;;;;;;22.77;48.29;99877.89;104731;1273;59898;-71
2022/05/20 12:03:04;;;;;;;13.90;8.00;;;;;;;22.69;48.39;99871.18;105064;1273;59644;-70
2022/05/20 12:05:53;;;;;;;14.40;7.40;;;;;;;22.34;49.41;99882.50;105108;1273;74863;-71
2022/05/20 12:08:44;;;;;;;11.80;5.90;;;;;;;21.91;50.79;99882.77;104847;1273;69446;-72
2022/05/20 12:11:41;;;;;;;11.30;4.30;;;;;;;21.59;51.93;99883.91;104717;1273;72881;-72
2022/05/20 12:14:29;;;;;;;11.00;3.70;;;;;;;21.41;52.58;99883.11;104658;1273;59785;-70
2022/05/20 12:17:50;;;;;;;10.50;3.80;;;;;;;21.23;53.14;99883.04;104721;1274;62020;-72
2022/05/20 12:24:22;;;;;;;8.40;3.10;;;;;;;20.52;55.97;99888.70;104854;1274;70028;-71
2022/05/20 12:27:26;;;;;;;11.60;3.90;;;;;;;20.48;57.02;99887.70;104908;1274;74535;-71
2022/05/20 12:30:36;;;;;;;11.60;4.30;;;;;;;20.74;56.58;99887.55;104998;1274;59680;-72
2022/05/20 12:33:50;;;;;;;8.60;3.30;;;;;;;20.76;56.37;99876.00;104915;1275;59570;-71
2022/05/20 12:36:43;;;;;;;8.80;3.40;;;;;;;21.01;56.38;99867.45;104918;1274;74047;-71
2022/05/20 12:39:52;;;;;;;7.70;3.20;;;;;;;21.21;55.68;99867.52;104963;1273;69708;-72
2022/05/20 12:42:59;;;;;;;8.60;3.60;;;;;;;21.30;54.70;99858.69;104915;1273;73561;-71
2022/05/20 12:45:56;;;;;;;9.50;3.40;;;;;;;21.09;54.80;99859.70;105063;1273;59663;-72
2022/05/20 12:48:44;;;;;;;8.30;3.80;;;;;;;21.09;55.27;99858.50;104913;1273;60329;-72
2022/05/20 12:51:48;;;;;;;9.50;3.60;;;;;;;21.34;54.78;99856.42;105055;1273;74323;-72
2022/05/20 12:54:42;;;;;;;9.30;3.70;;;;;;;21.34;53.77;99851.23;104979;1273;69688;-74
2022/05/20 12:57:34;;;;;;;7.10;3.00;;;;;;;21.32;53.31;99846.60;105189;1273;74359;-70
2022/05/20 13:00:48;;;;;;;11.40;2.90;;;;;;;21.41;53.11;99848.51;105180;1273;59775;-73
2022/05/20 13:03:45;;;;;;;7.00;2.70;;;;;;;21.58;51.88;99838.17;104830;1274;61259;-72
2022/05/20 13:06:33;;;;;;;6.80;2.40;;;;;;;21.66;51.34;99829.83;104799;1274;73766;-71
2022/05/20 13:09:28;;;;;;;6.40;2.40;;;;;;;21.71;51.57;99827.15;104842;1273;66614;-71
2022/05/20 13:12:22;;;;;;;8.10;2.50;;;;;;;21.78;51.96;99821.36;105019;1273;73568;-72
2022/05/20 13:15:11;;;;;;;7.70;2.50;;;;;;;21.66;52.18;99821.14;106180;1273;59747;-71
2022/05/20 13:18:05;;;;;;;9.20;2.70;;;;;;;21.40;52.58;99817.77;107030;1273;58964;-73
2022/05/20 13:21:00;;;;;;;7.80;3.10;;;;;;;21.24;52.94;99822.13;106967;1273;74716;-74
2022/05/20 13:23:55;;;;;;;7.00;3.10;;;;;;;21.27;52.83;99817.11;104877;1273;69657;-73
2022/05/20 13:26:44;;;;;;;10.00;3.40;;;;;;;21.17;53.09;99813.21;105258;1273;74439;-75
2022/05/20 13:29:32;;;;;;;8.50;3.50;;;;;;;20.96;53.47;99811.02;104774;1272;59635;-75
2022/05/20 13:32:27;;;;;;;8.40;3.20;;;;;;;20.77;53.99;99807.41;105258;1273;59614;-73
2022/05/20 13:35:15;;;;;;;8.70;3.20;;;;;;;20.67;54.52;99809.99;104989;1273;74799;-71
2022/05/20 13:38:04;;;;;;;7.70;3.50;;;;;;;20.75;54.00;99812.72;104701;1272;68728;-73
2022/05/20 13:40:53;;;;;;;9.50;2.80;;;;;;;20.92;52.93;99809.53;104981;1273;72997;-72
2022/05/20 13:43:41;;;;;;;7.10;2.90;;;;;;;21.11;52.52;99812.42;104732;1273;59667;-71
2022/05/20 13:49:39;;;;;;;7.70;2.60;;;;;;;21.45;49.55;99828.47;104904;1273;71859;-73
2022/05/20 13:52:29;;;;;;;8.80;2.90;;;;;;;21.29;50.96;99832.13;104634;1273;66787;-71
2022/05/20 13:55:19;;;;;;;8.70;2.70;;;;;;;21.02;51.82;99828.34;104757;1273;70721;-71
2022/05/20 13:58:07;;;;;;;8.30;2.70;;;;;;;20.84;52.19;99817.52;104971;1273;59650;-71
2022/05/20 14:01:04;;;;;;;8.40;3.10;;;;;;;20.76;51.88;99817.35;105209;1273;60608;-69
2022/05/20 14:03:53;;;;;;;8.90;3.00;;;;;;;20.72;51.35;99810.40;104753;1273;74263;-71
2022/05/20 14:06:42;;;;;;;10.00;3.10;;;;;;;20.72;51.44;99814.39;104826;1273;67163;-70